Time;durP1;ratioP1;P1;durP2;ratioP2;P2;SDS_P1;SDS_P2;PMS_P1;PMS_P2;Temp;Humidity;BMP_temperature;BMP_pressure;BME280_temperature;BME280_humidity;BME280_pressure;Samples;Min_cycle;Max_cycle;Signal;HPM_P1;HPM_P2
2022/07/13 00:02:20;;;;;;;6.50;5.30;;;22.00;99.90;;;;;;4864691;29;20045;-79
2022/07/13 00:04:45;;;;;;;6.28;5.68;;;22.00;99.90;;;;;;4880362;29;20053;-78
2022/07/13 00:07:11;;;;;;;6.40;5.78;;;22.00;99.90;;;;;;4864892;29;20500;-78
2022/07/13 00:09:37;;;;;;;6.75;6.00;;;22.00;99.90;;;;;;4864927;29;20124;-80
2022/07/13 00:12:03;;;;;;;7.13;6.20;;;22.00;99.90;;;;;;4864465;29;20041;-77
2022/07/13 00:14:29;;;;;;;6.32;5.60;;;21.90;99.90;;;;;;4864046;29;20056;-78
2022/07/13 00:16:54;;;;;;;6.47;5.88;;;21.90;99.90;;;;;;4849457;29;20045;-78
2022/07/13 00:19:20;;;;;;;6.68;6.00;;;21.90;99.90;;;;;;4848937;29;20105;-79
2022/07/13 00:21:46;;;;;;;7.18;6.47;;;21.90;99.90;;;;;;4864107;29;20059;-80
2022/07/13 00:24:14;;;;;;;7.22;6.20;;;21.90;99.90;;;;;;4865378;29;20132;-78
2022/07/13 00:26:40;;;;;;;10.07;6.53;;;21.90;99.90;;;;;;4865184;29;20076;-79
2022/07/13 00:29:06;;;;;;;6.65;5.85;;;21.90;99.90;;;;;;4834889;29;20133;-78
2022/07/13 00:31:32;;;;;;;7.25;6.55;;;21.80;99.90;;;;;;4849218;29;20049;-78
2022/07/13 00:33:57;;;;;;;6.97;6.28;;;21.80;99.90;;;;;;4865152;29;20394;-78
2022/07/13 00:36:23;;;;;;;6.70;6.10;;;21.80;99.90;;;;;;4879505;29;20052;-78
2022/07/13 00:38:49;;;;;;;8.13;6.15;;;21.80;99.90;;;;;;4832811;29;20049;-78
2022/07/13 00:41:14;;;;;;;8.77;6.28;;;21.80;99.90;;;;;;4878864;29;20052;-79
2022/07/13 00:43:40;;;;;;;6.07;5.53;;;21.70;99.90;;;;;;4833181;29;20053;-78
2022/07/13 00:46:06;;;;;;;6.65;5.95;;;21.70;99.90;;;;;;4865086;29;20093;-78
2022/07/13 00:48:33;;;;;;;6.38;5.78;;;21.70;99.90;;;;;;4834306;29;20048;-79
2022/07/13 00:50:59;;;;;;;6.93;6.25;;;21.70;99.90;;;;;;4850108;29;20465;-80
2022/07/13 00:53:25;;;;;;;6.40;5.72;;;21.70;99.90;;;;;;4863785;29;20051;-78
2022/07/13 00:55:51;;;;;;;7.70;6.25;;;21.70;99.90;;;;;;4864174;29;20093;-80
2022/07/13 00:58:17;;;;;;;9.43;6.78;;;21.70;99.90;;;;;;4864066;29;20494;-79
2022/07/13 01:00:43;;;;;;;6.55;5.85;;;21.70;99.90;;;;;;4848985;29;20037;-79
2022/07/13 01:03:09;;;;;;;6.93;5.68;;;21.70;99.90;;;;;;4863671;29;20653;-78
2022/07/13 01:05:35;;;;;;;6.95;5.90;;;21.60;99.90;;;;;;4863865;29;20076;-78
2022/07/13 01:08:03;;;;;;;6.65;5.95;;;21.60;99.90;;;;;;4847948;29;20069;-78
2022/07/13 01:10:29;;;;;;;6.32;5.63;;;21.60;99.90;;;;;;4863677;29;20521;-78
2022/07/13 01:12:55;;;;;;;8.77;5.68;;;21.60;99.90;;;;;;4863459;29;20052;-79
2022/07/13 01:15:22;;;;;;;6.10;5.40;;;21.60;99.90;;;;;;4832977;29;20044;-79
2022/07/13 01:17:48;;;;;;;6.47;5.88;;;21.60;99.90;;;;;;4848022;29;20053;-79
2022/07/13 01:20:15;;;;;;;5.88;5.38;;;21.60;99.90;;;;;;4847877;29;20097;-78
2022/07/13 01:22:51;;;;;;;6.28;5.18;;;21.50;99.90;;;;;;4863397;29;20398;-79
2022/07/13 01:25:18;;;;;;;6.72;5.40;;;21.60;99.90;;;;;;4878836;29;20045;-77
2022/07/13 01:27:47;;;;;;;7.10;5.35;;;21.50;99.90;;;;;;4848107;29;20048;-78
2022/07/13 01:30:13;;;;;;;6.53;5.57;;;21.50;99.90;;;;;;4878586;29;20041;-80
2022/07/13 01:32:50;;;;;;;7.75;5.30;;;21.50;99.90;;;;;;4878912;29;20495;-80
2022/07/13 01:35:17;;;;;;;7.03;5.97;;;21.50;99.90;;;;;;4879440;29;20128;-78
2022/07/13 01:37:44;;;;;;;6.50;5.47;;;21.60;99.90;;;;;;4864224;29;20044;-78
2022/07/13 01:40:10;;;;;;;6.53;5.20;;;21.60;99.90;;;;;;4879262;29;20450;-78
2022/07/13 01:42:51;;;;;;;6.78;6.07;;;21.50;99.90;;;;;;4877988;29;20053;-79
2022/07/13 01:45:18;;;;;;;5.60;5.10;;;21.50;99.90;;;;;;4878677;29;20048;-79
2022/07/13 01:47:47;;;;;;;6.82;4.88;;;21.50;99.90;;;;;;4879369;29;20041;-79
2022/07/13 01:50:14;;;;;;;5.95;5.35;;;21.50;99.90;;;;;;4879462;29;20056;-77
2022/07/13 01:52:40;;;;;;;7.47;5.07;;;21.50;99.90;;;;;;4847638;29;20048;-78
2022/07/13 01:55:08;;;;;;;5.78;5.28;;;21.50;99.90;;;;;;4877956;29;20044;-78
2022/07/13 01:57:35;;;;;;;6.63;5.68;;;21.50;99.90;;;;;;4879500;29;20049;-78
2022/07/13 02:00:20;;;;;;;7.18;5.43;;;21.40;99.90;;;;;;4849389;29;20041;-79
2022/07/13 02:02:47;;;;;;;7.35;6.32;;;21.40;99.90;;;;;;4850937;29;20048;-78
2022/07/13 02:05:13;;;;;;;7.15;6.30;;;21.40;99.90;;;;;;4863781;29;20387;-79
2022/07/13 02:07:40;;;;;;;7.13;5.85;;;21.40;99.90;;;;;;4848212;29;20052;-80
2022/07/13 02:10:07;;;;;;;8.65;6.32;;;21.30;99.90;;;;;;4863758;29;20049;-79
2022/07/13 02:12:33;;;;;;;6.90;5.82;;;21.30;99.90;;;;;;4863249;29;20045;-79
2022/07/13 02:14:59;;;;;;;10.68;6.70;;;21.30;99.90;;;;;;4862659;29;20097;-78
2022/07/13 02:17:25;;;;;;;7.45;6.30;;;21.30;99.90;;;;;;4847555;29;20041;-78
2022/07/13 02:19:51;;;;;;;7.45;5.25;;;21.20;99.90;;;;;;4863757;29;20124;-80
2022/07/13 02:22:16;;;;;;;6.50;5.10;;;21.30;99.90;;;;;;4878758;29;20528;-78
2022/07/13 02:24:42;;;;;;;8.48;4.82;;;21.30;99.90;;;;;;4863790;29;20046;-79
2022/07/13 02:27:08;;;;;;;6.15;4.70;;;21.20;99.90;;;;;;4879778;29;20607;-79
2022/07/13 02:29:34;;;;;;;5.45;4.47;;;21.20;99.90;;;;;;4847471;29;20044;-78
2022/07/13 02:31:59;;;;;;;4.75;4.30;;;21.20;99.90;;;;;;4863085;29;20052;-79
2022/07/13 02:34:27;;;;;;;5.43;4.93;;;21.20;99.90;;;;;;4833400;29;20053;-77
2022/07/13 02:36:54;;;;;;;5.82;4.97;;;21.20;99.90;;;;;;4849419;29;20041;-79
2022/07/13 02:39:20;;;;;;;5.53;4.80;;;21.30;99.90;;;;;;4880956;29;20048;-78
2022/07/13 02:41:46;;;;;;;5.95;5.35;;;21.20;99.90;;;;;;4865650;29;20044;-80
2022/07/13 02:44:11;;;;;;;5.65;5.00;;;21.20;99.90;;;;;;4865852;29;20053;-78
2022/07/13 02:46:37;;;;;;;6.15;5.55;;;21.20;99.90;;;;;;4850309;29;20041;-79
2022/07/13 02:49:03;;;;;;;6.03;5.43;;;21.20;99.90;;;;;;4865683;29;20063;-80
2022/07/13 02:51:29;;;;;;;7.07;5.40;;;21.20;99.90;;;;;;4851793;29;20040;-79
2022/07/13 02:53:54;;;;;;;6.43;5.82;;;21.20;99.90;;;;;;4882021;29;20056;-79
2022/07/13 02:56:20;;;;;;;6.60;5.90;;;21.20;99.90;;;;;;4850950;29;20044;-79
2022/07/13 02:58:46;;;;;;;6.65;5.60;;;21.20;99.90;;;;;;4866551;29;20139;-79
2022/07/13 03:01:11;;;;;;;6.13;5.15;;;21.20;99.90;;;;;;4866506;29;20131;-77
2022/07/13 03:03:37;;;;;;;7.25;5.32;;;21.10;99.90;;;;;;4835441;29;20314;-79
2022/07/13 03:06:03;;;;;;;6.20;5.50;;;21.10;99.90;;;;;;4880717;29;20093;-79
2022/07/13 03:08:28;;;;;;;6.40;5.20;;;21.10;99.90;;;;;;4850602;29;20514;-80
2022/07/13 03:10:54;;;;;;;5.57;5.07;;;21.10;99.90;;;;;;4866809;29;20057;-79
2022/07/13 03:13:20;;;;;;;6.68;5.25;;;21.10;99.90;;;;;;4851364;29;20410;-79
2022/07/13 03:15:46;;;;;;;6.22;5.57;;;21.10;99.90;;;;;;4851339;29;20480;-79
2022/07/13 03:18:11;;;;;;;5.72;5.13;;;21.10;99.90;;;;;;4867421;29;20049;-78
2022/07/13 03:20:39;;;;;;;5.90;5.38;;;21.10;99.90;;;;;;4866542;29;20402;-79
2022/07/13 03:23:05;;;;;;;5.82;5.20;;;21.10;99.90;;;;;;4866088;29;20081;-79
2022/07/13 03:25:30;;;;;;;6.22;4.80;;;21.10;99.90;;;;;;4850990;29;20166;-78
2022/07/13 03:27:56;;;;;;;5.95;4.88;;;21.00;99.90;;;;;;4850685;29;20045;-80
2022/07/13 03:30:22;;;;;;;7.13;5.03;;;21.00;99.90;;;;;;4881553;29;20045;-78
2022/07/13 03:32:48;;;;;;;5.28;4.53;;;21.00;99.90;;;;;;4865914;29;20049;-79
2022/07/13 03:35:14;;;;;;;7.40;5.07;;;21.00;99.90;;;;;;4881684;29;20084;-78
2022/07/13 03:37:40;;;;;;;7.75;4.85;;;21.00;99.90;;;;;;4850264;29;20049;-79
2022/07/13 03:40:06;;;;;;;4.85;4.38;;;21.00;99.90;;;;;;4864648;29;20108;-79
2022/07/13 03:42:34;;;;;;;5.18;4.53;;;21.00;99.90;;;;;;4881921;29;20052;-79
2022/07/13 03:45:00;;;;;;;4.78;4.28;;;21.00;99.90;;;;;;4850569;29;20482;-79
2022/07/13 03:47:25;;;;;;;5.28;4.32;;;21.10;99.90;;;;;;4850453;29;20069;-79
2022/07/13 03:49:51;;;;;;;4.57;4.10;;;21.00;99.90;;;;;;4865658;29;20052;-80
2022/07/13 03:52:17;;;;;;;4.13;3.53;;;21.00;99.90;;;;;;4848784;29;20076;-80
2022/07/13 03:54:43;;;;;;;4.85;4.13;;;21.10;99.90;;;;;;4850665;29;20402;-78
2022/07/13 03:57:08;;;;;;;4.95;3.80;;;21.10;99.90;;;;;;4881279;29;20077;-79
2022/07/13 03:59:34;;;;;;;6.15;4.60;;;21.10;99.90;;;;;;4880615;29;20060;-79
2022/07/13 04:02:00;;;;;;;5.65;4.15;;;21.10;99.90;;;;;;4850257;29;20482;-80
2022/07/13 04:04:27;;;;;;;5.35;4.00;;;21.10;99.90;;;;;;4865190;29;20383;-79
2022/07/13 04:06:53;;;;;;;5.18;3.80;;;21.10;99.90;;;;;;4850203;29;20041;-80
2022/07/13 04:09:19;;;;;;;4.60;4.07;;;21.10;99.90;;;;;;4864188;29;20124;-78
2022/07/13 04:11:45;;;;;;;5.93;4.30;;;21.10;99.90;;;;;;4864459;29;20120;-78
2022/07/13 04:14:11;;;;;;;5.30;4.80;;;21.10;99.90;;;;;;4835240;29;20041;-78
2022/07/13 04:16:36;;;;;;;4.82;4.00;;;21.10;99.90;;;;;;4849935;29;20113;-78
2022/07/13 04:19:02;;;;;;;5.30;4.15;;;21.10;99.90;;;;;;4833485;29;20136;-79
2022/07/13 04:21:28;;;;;;;6.25;4.10;;;21.10;99.90;;;;;;4849380;29;20052;-78
2022/07/13 04:23:53;;;;;;;4.78;4.32;;;21.10;99.90;;;;;;4835985;29;20047;-79
2022/07/13 04:26:19;;;;;;;5.13;4.35;;;21.10;99.90;;;;;;4880451;29;20048;-78
2022/07/13 04:28:45;;;;;;;5.13;3.90;;;21.20;99.90;;;;;;4849567;29;20048;-78
2022/07/13 04:31:10;;;;;;;4.18;3.70;;;21.20;99.90;;;;;;4834330;29;20104;-80
2022/07/13 04:33:36;;;;;;;6.32;4.10;;;21.20;99.90;;;;;;4864386;29;20136;-79
2022/07/13 04:36:02;;;;;;;4.78;3.70;;;21.20;99.90;;;;;;4863377;29;20041;-80
2022/07/13 04:38:27;;;;;;;5.13;3.65;;;21.20;99.90;;;;;;4863141;29;20044;-78
2022/07/13 04:40:53;;;;;;;5.68;4.20;;;21.20;99.90;;;;;;4863539;29;20048;-78
2022/07/13 04:43:19;;;;;;;4.40;4.00;;;21.20;99.90;;;;;;4879513;29;20140;-78
2022/07/13 04:45:44;;;;;;;3.85;3.53;;;21.20;99.90;;;;;;4880180;29;20109;-79
2022/07/13 04:48:11;;;;;;;3.63;3.00;;;21.20;99.90;;;;;;4834298;29;20105;-78
2022/07/13 04:50:37;;;;;;;5.13;3.50;;;21.30;99.90;;;;;;4864550;29;20049;-79
2022/07/13 04:53:03;;;;;;;4.85;3.50;;;21.20;99.90;;;;;;4864270;29;20507;-79
2022/07/13 04:55:28;;;;;;;4.30;3.30;;;21.30;99.90;;;;;;4848120;29;20052;-78
2022/07/13 04:57:56;;;;;;;5.35;3.80;;;21.30;99.90;;;;;;4863398;29;20048;-79
2022/07/13 05:00:22;;;;;;;3.83;3.35;;;21.30;99.90;;;;;;4865372;29;20052;-78
2022/07/13 05:02:48;;;;;;;4.53;3.75;;;21.30;99.90;;;;;;4848535;29;20413;-80
2022/07/13 05:05:13;;;;;;;4.53;3.80;;;21.30;99.90;;;;;;4834089;29;20045;-78
2022/07/13 05:07:39;;;;;;;5.00;3.70;;;21.30;99.90;;;;;;4863841;29;20077;-79
2022/07/13 05:10:07;;;;;;;5.07;3.65;;;21.30;99.90;;;;;;4833475;29;20452;-78
2022/07/13 05:12:40;;;;;;;4.95;3.97;;;21.30;99.90;;;;;;4849346;29;20393;-79
2022/07/13 05:15:07;;;;;;;4.75;3.75;;;21.40;99.90;;;;;;4863801;29;20044;-78
2022/07/13 05:17:33;;;;;;;3.70;3.30;;;21.40;99.90;;;;;;4864152;29;20051;-79
2022/07/13 05:19:59;;;;;;;4.72;3.55;;;21.40;99.90;;;;;;4849016;29;20405;-79
2022/07/13 05:22:25;;;;;;;4.07;3.67;;;21.40;99.90;;;;;;4833493;29;20108;-80
2022/07/13 05:24:50;;;;;;;5.20;3.63;;;21.40;99.90;;;;;;4863732;29;20135;-79
2022/07/13 05:27:16;;;;;;;4.25;3.85;;;21.40;99.90;;;;;;4848281;29;20458;-80
2022/07/13 05:29:41;;;;;;;4.32;3.85;;;21.50;99.90;;;;;;4878519;29;20044;-78
2022/07/13 05:32:07;;;;;;;4.88;3.60;;;21.50;99.90;;;;;;4864149;29;20037;-78
2022/07/13 05:34:33;;;;;;;5.03;3.72;;;21.60;99.90;;;;;;4833860;29;20128;-79
2022/07/13 05:36:59;;;;;;;4.35;3.78;;;21.60;99.90;;;;;;4848419;29;20037;-79
2022/07/13 05:39:24;;;;;;;3.85;3.22;;;21.70;99.90;;;;;;4848778;29;20149;-78
2022/07/13 05:41:50;;;;;;;5.68;3.40;;;21.70;99.90;;;;;;4879041;29;20454;-77
2022/07/13 05:44:16;;;;;;;4.57;3.67;;;21.80;99.90;;;;;;4863048;29;20597;-78
2022/07/13 05:46:47;;;;;;;10.38;3.60;;;21.80;99.90;;;;;;4863685;29;20048;-77
2022/07/13 05:49:13;;;;;;;3.20;2.90;;;21.80;99.90;;;;;;4879324;29;20052;-79
2022/07/13 05:51:38;;;;;;;3.40;2.95;;;21.80;99.90;;;;;;4879115;29;20052;-78
2022/07/13 05:54:04;;;;;;;4.00;2.88;;;21.90;99.90;;;;;;4879281;29;20150;-79
2022/07/13 05:56:30;;;;;;;5.30;3.10;;;21.90;99.90;;;;;;4848212;29;20442;-79
2022/07/13 05:58:56;;;;;;;4.00;3.22;;;22.00;99.90;;;;;;4848034;29;20460;-79
2022/07/13 06:01:22;;;;;;;5.03;3.38;;;22.10;99.90;;;;;;4847020;29;20135;-77
2022/07/13 06:03:47;;;;;;;4.95;3.67;;;22.10;99.90;;;;;;4862605;29;20041;-79
2022/07/13 06:06:13;;;;;;;4.78;3.95;;;22.10;99.90;;;;;;4832485;29;20045;-79
2022/07/13 06:08:39;;;;;;;5.82;4.28;;;22.20;99.90;;;;;;4877710;29;20132;-78
2022/07/13 06:11:05;;;;;;;9.52;4.30;;;22.20;99.90;;;;;;4862407;29;20078;-79
2022/07/13 06:13:30;;;;;;;6.43;4.40;;;22.30;99.90;;;;;;4851420;29;20064;-79
2022/07/13 06:15:57;;;;;;;5.28;4.35;;;22.30;99.90;;;;;;4866435;29;20053;-79
2022/07/13 06:18:23;;;;;;;5.55;4.40;;;22.40;99.90;;;;;;4836527;29;20076;-78
2022/07/13 06:20:49;;;;;;;6.43;4.13;;;22.40;99.90;;;;;;4882018;29;20052;-77
2022/07/13 06:23:16;;;;;;;5.72;4.25;;;22.50;99.90;;;;;;4836122;29;20040;-80
2022/07/13 06:25:45;;;;;;;7.70;4.57;;;22.50;99.90;;;;;;4867000;29;20128;-79
2022/07/13 06:28:11;;;;;;;5.45;4.68;;;22.60;99.90;;;;;;4867112;29;20040;-79
2022/07/13 06:30:36;;;;;;;5.45;4.55;;;22.70;99.90;;;;;;4866644;29;20132;-77
2022/07/13 06:33:02;;;;;;;6.88;4.72;;;22.70;99.90;;;;;;4866429;29;20067;-78
2022/07/13 06:35:29;;;;;;;5.95;5.10;;;22.80;99.90;;;;;;4866802;29;20132;-79
2022/07/13 06:37:55;;;;;;;7.22;5.10;;;22.80;99.90;;;;;;4881843;29;20105;-77
2022/07/13 06:40:21;;;;;;;5.97;5.28;;;22.90;99.90;;;;;;4850805;29;20478;-79
2022/07/13 06:42:47;;;;;;;8.82;5.57;;;23.00;99.90;;;;;;4865437;29;20121;-79
2022/07/13 06:45:13;;;;;;;7.65;5.93;;;23.10;99.90;;;;;;4866809;29;20053;-79
2022/07/13 06:47:39;;;;;;;7.32;5.70;;;23.10;99.90;;;;;;4882157;29;20509;-78
2022/07/13 06:50:08;;;;;;;7.18;5.97;;;23.10;99.90;;;;;;4866401;29;20490;-79
2022/07/13 06:52:34;;;;;;;7.53;6.60;;;23.20;99.90;;;;;;4867810;29;20076;-79
2022/07/13 06:55:00;;;;;;;8.27;5.97;;;23.20;99.90;;;;;;4851783;29;20438;-78
2022/07/13 06:57:26;;;;;;;9.73;6.28;;;23.20;99.90;;;;;;4867164;29;20096;-79
2022/07/13 06:59:52;;;;;;;7.85;6.35;;;23.30;99.90;;;;;;4851968;29;20090;-79
2022/07/13 07:02:17;;;;;;;10.65;7.60;;;23.30;99.90;;;;;;4867198;29;20513;-78
2022/07/13 07:04:43;;;;;;;8.90;7.28;;;23.40;99.90;;;;;;4834448;29;20045;-78
2022/07/13 07:07:09;;;;;;;9.25;8.18;;;23.40;99.90;;;;;;4850312;29;20061;-78
2022/07/13 07:09:35;;;;;;;10.90;7.75;;;23.40;99.90;;;;;;4837558;29;20063;-78
2022/07/13 07:12:01;;;;;;;8.98;8.07;;;23.50;99.90;;;;;;4835981;29;20494;-79
2022/07/13 07:14:27;;;;;;;9.15;7.68;;;23.60;99.90;;;;;;4866930;29;20056;-78
2022/07/13 07:16:52;;;;;;;10.95;7.70;;;23.80;99.90;;;;;;4867482;29;20044;-79
2022/07/13 07:19:18;;;;;;;10.05;7.18;;;24.10;99.90;;;;;;4836777;29;20081;-79
2022/07/13 07:21:44;;;;;;;10.40;7.93;;;24.30;99.90;;;;;;4866543;29;20525;-78
2022/07/13 07:24:09;;;;;;;11.70;7.55;;;24.50;99.90;;;;;;4865777;29;20088;-79
2022/07/13 07:26:35;;;;;;;9.02;7.80;;;24.60;99.90;;;;;;4851094;29;20057;-79
2022/07/13 07:29:01;;;;;;;11.38;7.30;;;24.60;99.90;;;;;;4882333;29;20409;-79
2022/07/13 07:31:26;;;;;;;8.30;7.03;;;24.60;99.90;;;;;;4850976;29;20072;-78
2022/07/13 07:33:52;;;;;;;7.47;6.72;;;24.70;99.90;;;;;;4850580;29;20061;-80
2022/07/13 07:36:18;;;;;;;13.55;9.00;;;25.00;99.90;;;;;;4881325;29;20056;-79
2022/07/13 07:38:47;;;;;;;10.07;8.60;;;25.30;99.90;;;;;;4866303;29;20045;-78
2022/07/13 07:41:13;;;;;;;10.75;9.00;;;25.70;99.90;;;;;;4865417;29;20049;-79
2022/07/13 07:43:39;;;;;;;11.95;8.00;;;26.00;99.90;;;;;;4864911;29;20086;-78
2022/07/13 07:46:05;;;;;;;9.10;7.43;;;26.30;99.90;;;;;;4865992;29;20363;-79
2022/07/13 07:48:30;;;;;;;9.40;7.55;;;26.60;99.90;;;;;;4850181;29;20127;-79
2022/07/13 07:50:56;;;;;;;11.60;7.32;;;26.90;99.90;;;;;;4864490;29;20049;-79
2022/07/13 07:53:22;;;;;;;20.98;8.40;;;27.20;99.90;;;;;;4833629;29;20072;-79
2022/07/13 07:55:48;;;;;;;9.45;8.00;;;27.40;99.90;;;;;;4865993;29;20048;-79
2022/07/13 07:58:14;;;;;;;9.32;7.10;;;27.60;99.90;;;;;;4849431;29;20084;-79
2022/07/13 08:00:43;;;;;;;11.10;6.85;;;27.80;99.80;;;;;;4866086;29;20044;-80
2022/07/13 08:03:09;;;;;;;11.25;7.57;;;27.90;99.10;;;;;;4866864;29;20045;-78
2022/07/13 08:05:36;;;;;;;19.85;7.82;;;28.00;99.20;;;;;;4851225;29;20033;-78
2022/07/13 08:08:04;;;;;;;11.52;6.55;;;28.10;99.00;;;;;;4866155;29;20103;-79
2022/07/13 08:10:30;;;;;;;21.48;6.88;;;28.10;98.50;;;;;;4879376;29;20053;-79
2022/07/13 08:12:59;;;;;;;8.73;6.45;;;28.20;98.40;;;;;;4865364;29;20044;-78
2022/07/13 08:15:25;;;;;;;11.20;6.78;;;28.30;97.90;;;;;;4881462;29;20056;-80
2022/07/13 08:17:50;;;;;;;10.45;6.07;;;28.40;97.80;;;;;;4881755;29;20045;-79
2022/07/13 08:20:16;;;;;;;12.23;6.90;;;28.60;97.60;;;;;;4881089;29;20092;-78
2022/07/13 08:22:42;;;;;;;11.57;6.80;;;28.80;97.10;;;;;;4866306;29;20482;-77
2022/07/13 08:25:07;;;;;;;11.48;5.57;;;28.80;97.20;;;;;;4850075;29;20041;-80
2022/07/13 08:27:33;;;;;;;8.40;6.38;;;29.00;96.60;;;;;;4849413;29;20056;-79
2022/07/13 08:29:59;;;;;;;15.43;5.57;;;29.00;96.10;;;;;;4850636;29;20072;-79
2022/07/13 08:32:26;;;;;;;6.13;5.38;;;28.90;96.30;;;;;;4865103;29;20045;-78
2022/07/13 08:40:21;;;;;;;7.53;4.95;;;29.00;95.40;;;;;;4881170;29;20112;-79
2022/07/13 08:42:47;;;;;;;9.48;4.90;;;29.20;94.80;;;;;;4865626;29;20049;-79
2022/07/13 08:45:13;;;;;;;8.27;5.60;;;29.20;94.50;;;;;;4865902;29;20135;-78
2022/07/13 08:47:42;;;;;;;17.63;5.70;;;29.10;94.10;;;;;;4865582;29;20409;-79
2022/07/13 08:50:09;;;;;;;14.70;5.53;;;29.10;94.10;;;;;;4865619;29;20098;-79
2022/07/13 08:52:37;;;;;;;11.73;5.25;;;29.10;94.10;;;;;;4865348;29;20093;-79
2022/07/13 08:55:05;;;;;;;9.40;5.18;;;29.10;94.40;;;;;;4865906;29;20052;-79
2022/07/13 08:57:34;;;;;;;12.13;5.05;;;29.00;94.20;;;;;;4850520;29;20131;-79
2022/07/13 09:00:04;;;;;;;9.43;5.13;;;29.00;94.20;;;;;;4850523;29;20393;-79
2022/07/13 09:02:29;;;;;;;9.07;4.78;;;29.10;94.10;;;;;;4849371;29;20045;-80
2022/07/13 09:04:55;;;;;;;11.82;4.85;;;29.20;94.10;;;;;;4878989;29;20048;-79
2022/07/13 09:07:21;;;;;;;7.65;4.57;;;29.30;93.60;;;;;;4865009;29;20088;-79
2022/07/13 09:09:47;;;;;;;5.05;4.07;;;29.40;93.50;;;;;;4881215;29;20045;-79
2022/07/13 09:12:21;;;;;;;7.15;4.80;;;29.50;93.30;;;;;;4834439;29;20103;-79
2022/07/13 09:14:54;;;;;;;7.80;4.22;;;29.50;92.90;;;;;;4848284;29;20045;-79
2022/07/13 09:17:43;;;;;;;9.40;4.38;;;29.50;92.80;;;;;;4864218;29;20049;-78
2022/07/13 09:20:15;;;;;;;9.10;4.18;;;29.70;91.60;;;;;;4865875;29;20036;-78
2022/07/13 09:22:57;;;;;;;6.63;4.70;;;29.70;91.40;;;;;;4880883;29;20493;-78
2022/07/13 09:25:25;;;;;;;;;;;29.80;91.30;;;;;;4849918;29;20139;-78
2022/07/13 09:27:52;;;;;;;7.45;5.13;;;29.70;90.70;;;;;;4879321;29;20284;-78
2022/07/13 09:30:25;;;;;;;14.73;4.88;;;29.80;91.70;;;;;;4865576;29;20124;-78
2022/07/13 09:32:53;;;;;;;6.43;5.18;;;29.80;91.40;;;;;;4864966;29;20041;-78
2022/07/13 09:35:20;;;;;;;6.28;4.65;;;29.80;91.10;;;;;;4864192;29;20041;-80
2022/07/13 09:37:47;;;;;;;13.20;4.80;;;29.70;90.80;;;;;;4863951;29;20238;-78
2022/07/13 09:40:17;;;;;;;9.15;4.70;;;29.70;91.30;;;;;;4878750;29;20081;-78
2022/07/13 09:42:44;;;;;;;16.85;5.55;;;29.70;91.40;;;;;;4834262;29;20041;-78
2022/07/13 09:47:57;;;;;;;9.32;4.38;;;29.70;91.50;;;;;;4873727;29;20044;-77
2022/07/13 09:50:40;;;;;;;19.30;5.32;;;29.70;91.50;;;;;;4885722;29;20128;-77
2022/07/13 09:53:25;;;;;;;6.97;4.25;;;29.60;89.80;;;;;;4869842;29;20049;-79
2022/07/13 09:55:52;;;;;;;7.10;4.70;;;29.60;90.20;;;;;;4887213;29;20055;-77
2022/07/13 09:58:27;;;;;;;9.93;4.47;;;29.50;91.20;;;;;;4870164;29;20045;-77
2022/07/13 10:00:56;;;;;;;21.40;5.03;;;29.40;91.70;;;;;;4870959;29;20049;-78
2022/07/13 10:03:23;;;;;;;16.73;4.85;;;29.40;91.40;;;;;;4869973;29;20053;-78
2022/07/13 10:05:51;;;;;;;13.73;4.90;;;29.40;91.80;;;;;;4885900;29;20056;-78
2022/07/13 10:08:18;;;;;;;8.40;4.00;;;29.40;91.50;;;;;;4870580;29;20048;-79
2022/07/13 10:10:45;;;;;;;21.70;4.53;;;29.40;91.40;;;;;;4870714;29;20084;-79
2022/07/13 10:13:12;;;;;;;5.05;3.60;;;29.40;91.00;;;;;;4870352;29;20549;-78
2022/07/13 10:15:39;;;;;;;6.97;3.25;;;29.40;90.80;;;;;;4868975;29;20124;-78
2022/07/13 10:18:07;;;;;;;5.93;3.17;;;29.40;90.20;;;;;;4885410;29;20508;-78
2022/07/13 10:20:35;;;;;;;5.07;3.33;;;29.40;90.00;;;;;;4884904;29;20048;-78
2022/07/13 10:23:01;;;;;;;5.95;4.05;;;29.40;90.00;;;;;;4855942;29;20140;-77
2022/07/13 10:25:44;;;;;;;5.80;3.78;;;29.30;89.40;;;;;;4888817;29;20444;-78
2022/07/13 10:28:12;;;;;;;6.50;3.10;;;29.10;88.40;;;;;;4870534;29;20049;-77
2022/07/13 10:30:38;;;;;;;8.63;3.47;;;29.00;89.40;;;;;;4887030;29;20077;-79
2022/07/13 10:33:24;;;;;;;10.43;3.42;;;28.80;89.70;;;;;;4870694;29;20045;-78
2022/07/13 10:35:55;;;;;;;5.78;3.10;;;28.70;88.10;;;;;;4870122;29;20132;-77
2022/07/13 10:38:28;;;;;;;7.68;3.85;;;28.50;89.80;;;;;;4869424;29;20051;-78
2022/07/13 10:41:22;;;;;;;4.50;3.13;;;28.30;89.30;;;;;;4884418;29;20045;-78
2022/07/13 10:43:54;;;;;;;6.35;3.20;;;28.20;89.80;;;;;;4870170;29;20053;-79
2022/07/13 10:46:49;;;;;;;5.93;3.33;;;28.20;90.30;;;;;;4870057;29;20041;-79
2022/07/13 10:49:47;;;;;;;17.67;4.25;;;28.10;91.20;;;;;;4870207;29;20478;-77
2022/07/13 10:52:22;;;;;;;10.90;3.20;;;28.10;89.40;;;;;;4814439;29;20060;-77
2022/07/13 10:57:30;;;;;;;7.32;3.50;;;28.10;90.50;;;;;;4883741;29;20115;-79
2022/07/13 11:00:19;;;;;;;11.60;3.83;;;28.10;90.30;;;;;;4882569;29;20084;-78
2022/07/13 11:02:50;;;;;;;6.13;3.38;;;28.10;90.00;;;;;;4883021;29;20060;-79
2022/07/13 11:05:18;;;;;;;15.57;3.53;;;28.10;90.40;;;;;;4881913;29;20053;-78
2022/07/13 11:07:51;;;;;;;9.75;3.70;;;28.20;91.10;;;;;;4851221;29;20105;-79
2022/07/13 11:10:19;;;;;;;7.72;3.65;;;28.20;91.70;;;;;;4866236;29;20498;-79
2022/07/13 11:12:58;;;;;;;11.30;3.67;;;28.30;91.90;;;;;;4866272;29;20049;-79
2022/07/13 11:15:40;;;;;;;7.70;3.47;;;28.40;90.90;;;;;;4866358;29;20461;-79
2022/07/13 11:18:22;;;;;;;8.70;2.83;;;28.60;91.00;;;;;;4867845;29;20116;-78
2022/07/13 11:21:02;;;;;;;9.32;3.25;;;28.60;90.60;;;;;;4866330;29;20045;-79
2022/07/13 11:26:20;;;;;;;15.75;3.13;;;28.80;90.90;;;;;;4880361;29;20055;-79
2022/07/13 11:29:15;;;;;;;8.75;2.90;;;28.90;90.50;;;;;;4865255;29;20059;-78
2022/07/13 11:31:41;;;;;;;7.43;3.13;;;29.00;88.30;;;;;;4849544;29;20092;-78
2022/07/13 11:34:07;;;;;;;15.00;2.92;;;28.80;87.50;;;;;;4867044;29;20052;-78
2022/07/13 11:36:33;;;;;;;24.67;4.32;;;28.50;87.70;;;;;;4851896;29;20355;-79
2022/07/13 11:39:00;;;;;;;18.05;2.75;;;28.40;88.30;;;;;;4866676;29;20056;-78
2022/07/13 11:41:26;;;;;;;13.07;2.85;;;28.40;87.50;;;;;;4866887;29;20045;-77
2022/07/13 11:43:56;;;;;;;9.60;2.33;;;28.30;86.40;;;;;;4865932;29;20116;-77
2022/07/13 11:46:27;;;;;;;5.57;2.50;;;28.40;85.50;;;;;;4865122;29;20081;-78
2022/07/13 11:49:04;;;;;;;19.90;3.53;;;28.40;84.50;;;;;;4880713;29;20055;-79
2022/07/13 11:51:30;;;;;;;12.93;2.72;;;28.50;81.40;;;;;;4865883;29;20081;-78
2022/07/13 11:54:07;;;;;;;23.75;3.30;;;28.70;84.60;;;;;;4881346;29;20041;-77
2022/07/13 11:56:32;;;;;;;14.68;2.72;;;28.70;83.60;;;;;;4851507;29;20442;-78
2022/07/13 11:58:58;;;;;;;6.10;2.35;;;28.70;83.50;;;;;;4866321;29;20045;-78
2022/07/13 12:01:24;;;;;;;10.00;2.33;;;28.80;82.10;;;;;;4850494;29;20049;-77
2022/07/13 12:03:49;;;;;;;6.20;2.70;;;28.90;82.00;;;;;;4866367;29;20125;-78
2022/07/13 12:06:17;;;;;;;13.07;2.65;;;28.90;80.00;;;;;;4865739;29;20041;-78
2022/07/13 12:08:44;;;;;;;62.67;5.03;;;28.90;81.20;;;;;;4849913;29;20439;-77
2022/07/13 12:11:15;;;;;;;15.40;2.75;;;29.00;82.60;;;;;;4850559;29;20109;-78
2022/07/13 12:13:42;;;;;;;22.77;3.67;;;29.00;83.20;;;;;;4866151;29;20044;-78
2022/07/13 12:16:11;;;;;;;11.85;3.50;;;29.10;83.60;;;;;;4880715;29;20080;-79
2022/07/13 12:19:01;;;;;;;5.82;3.33;;;29.10;82.80;;;;;;4865924;29;20049;-80
2022/07/13 12:21:27;;;;;;;11.43;2.67;;;29.10;82.80;;;;;;4865402;29;20049;-78
2022/07/13 12:23:53;;;;;;;5.20;2.50;;;29.30;83.10;;;;;;4865007;29;20049;-79
2022/07/13 12:26:18;;;;;;;10.70;2.72;;;29.20;81.80;;;;;;4865379;29;20109;-78
2022/07/13 12:28:44;;;;;;;11.52;3.10;;;29.30;81.40;;;;;;4879284;29;20041;-79
2022/07/13 12:31:10;;;;;;;7.18;3.03;;;29.50;80.40;;;;;;4863972;29;20128;-78
2022/07/13 12:33:44;;;;;;;9.30;2.45;;;29.40;79.40;;;;;;4834826;29;20041;-78
2022/07/13 12:36:12;;;;;;;12.65;2.47;;;29.50;79.60;;;;;;4863824;29;20053;-78
2022/07/13 12:38:58;;;;;;;7.75;2.20;;;29.50;79.00;;;;;;4880838;29;20399;-79
2022/07/13 12:41:29;;;;;;;6.45;2.45;;;29.40;80.30;;;;;;4881325;29;20100;-79
2022/07/13 12:43:57;;;;;;;11.40;2.65;;;29.60;79.90;;;;;;4865305;29;20064;-78
2022/07/13 12:46:23;;;;;;;29.10;3.03;;;29.80;79.20;;;;;;4849737;29;20052;-77
2022/07/13 12:48:59;;;;;;;29.75;3.13;;;29.80;78.60;;;;;;4849655;29;20045;-80
2022/07/13 12:51:24;;;;;;;26.08;3.38;;;29.90;75.10;;;;;;4865703;29;20497;-79
2022/07/13 12:53:58;;;;;;;10.45;2.53;;;30.10;77.30;;;;;;4865260;29;20045;-79
2022/07/13 12:56:26;;;;;;;13.30;2.80;;;30.20;77.00;;;;;;4835682;29;20059;-79
2022/07/13 12:59:00;;;;;;;60.88;4.22;;;30.20;75.60;;;;;;4880470;29;20060;-79
2022/07/13 13:01:37;;;;;;;8.73;2.03;;;30.10;73.50;;;;;;4880374;29;20045;-78
2022/07/13 13:04:10;;;;;;;3.15;1.83;;;30.30;72.50;;;;;;4880278;29;20533;-79